sensor_id;sensor_type;location;lat;lon;timestamp;P1;durP1;ratioP1;P2;durP2;ratioP2
50569;SDS011;36525;49.398;7.614;2023-02-01T00:01:18;15.65;;;7.63;;
50569;SDS011;36525;49.398;7.614;2023-02-01T00:03:45;15.35;;;6.03;;
50569;SDS011;36525;49.398;7.614;2023-02-01T00:06:12;14.20;;;6.72;;
50569;SDS011;36525;49.398;7.614;2023-02-01T00:08:39;10.95;;;5.40;;
50569;SDS011;36525;49.398;7.614;2023-02-01T00:11:07;17.70;;;6.25;;
50569;SDS011;36525;49.398;7.614;2023-02-01T00:13:38;13.65;;;5.80;;
50569;SDS011;36525;49.398;7.614;2023-02-01T00:16:08;9.25;;;5.43;;
50569;SDS011;36525;49.398;7.614;2023-02-01T00:18:45;12.38;;;5.38;;
50569;SDS011;36525;49.398;7.614;2023-02-01T00:21:15;12.02;;;5.93;;
50569;SDS011;36525;49.398;7.614;2023-02-01T00:23:46;12.23;;;5.87;;
50569;SDS011;36525;49.398;7.614;2023-02-01T00:26:15;9.88;;;5.07;;
50569;SDS011;36525;49.398;7.614;2023-02-01T00:29:14;12.27;;;6.38;;
50569;SDS011;36525;49.398;7.614;2023-02-01T00:31:44;7.85;;;5.55;;
50569;SDS011;36525;49.398;7.614;2023-02-01T00:34:12;12.98;;;5.78;;
50569;SDS011;36525;49.398;7.614;2023-02-01T00:36:42;13.50;;;5.60;;
50569;SDS011;36525;49.398;7.614;2023-02-01T00:39:10;9.25;;;5.28;;
50569;SDS011;36525;49.398;7.614;2023-02-01T00:41:37;13.77;;;6.00;;
50569;SDS011;36525;49.398;7.614;2023-02-01T00:44:05;11.60;;;6.32;;
50569;SDS011;36525;49.398;7.614;2023-02-01T00:46:32;13.00;;;6.40;;
50569;SDS011;36525;49.398;7.614;2023-02-01T00:48:59;14.70;;;6.72;;
50569;SDS011;36525;49.398;7.614;2023-02-01T00:51:27;13.68;;;8.57;;
50569;SDS011;36525;49.398;7.614;2023-02-01T00:53:55;15.38;;;8.10;;
50569;SDS011;36525;49.398;7.614;2023-02-01T00:56:23;16.92;;;7.47;;
50569;SDS011;36525;49.398;7.614;2023-02-01T00:58:50;9.82;;;5.75;;
50569;SDS011;36525;49.398;7.614;2023-02-01T01:01:24;17.13;;;7.63;;
50569;SDS011;36525;49.398;7.614;2023-02-01T01:03:54;13.80;;;7.15;;
50569;SDS011;36525;49.398;7.614;2023-02-01T01:06:28;15.73;;;7.07;;
50569;SDS011;36525;49.398;7.614;2023-02-01T01:08:58;12.30;;;5.70;;
50569;SDS011;36525;49.398;7.614;2023-02-01T01:11:33;15.90;;;7.70;;
50569;SDS011;36525;49.398;7.614;2023-02-01T01:14:04;13.45;;;7.40;;
50569;SDS011;36525;49.398;7.614;2023-02-01T01:16:34;15.05;;;7.88;;
50569;SDS011;36525;49.398;7.614;2023-02-01T01:19:01;16.77;;;9.38;;
50569;SDS011;36525;49.398;7.614;2023-02-01T01:21:29;17.02;;;9.60;;
50569;SDS011;36525;49.398;7.614;2023-02-01T01:23:56;16.90;;;8.90;;
50569;SDS011;36525;49.398;7.614;2023-02-01T01:26:25;12.90;;;6.80;;
50569;SDS011;36525;49.398;7.614;2023-02-01T01:28:54;10.55;;;6.45;;
50569;SDS011;36525;49.398;7.614;2023-02-01T01:31:23;13.45;;;7.35;;
50569;SDS011;36525;49.398;7.614;2023-02-01T01:33:52;16.75;;;7.13;;
50569;SDS011;36525;49.398;7.614;2023-02-01T01:36:21;14.63;;;6.40;;
50569;SDS011;36525;49.398;7.614;2023-02-01T01:38:48;18.98;;;8.70;;
50569;SDS011;36525;49.398;7.614;2023-02-01T01:41:20;12.73;;;8.07;;
50569;SDS011;36525;49.398;7.614;2023-02-01T01:46:26;22.07;;;8.80;;
50569;SDS011;36525;49.398;7.614;2023-02-01T01:51:28;15.23;;;8.98;;
50569;SDS011;36525;49.398;7.614;2023-02-01T01:54:03;17.27;;;8.70;;
50569;SDS011;36525;49.398;7.614;2023-02-01T01:56:42;15.68;;;8.15;;
50569;SDS011;36525;49.398;7.614;2023-02-01T01:59:15;18.27;;;8.88;;
50569;SDS011;36525;49.398;7.614;2023-02-01T02:01:42;14.82;;;7.00;;
50569;SDS011;36525;49.398;7.614;2023-02-01T02:04:09;12.95;;;5.72;;
50569;SDS011;36525;49.398;7.614;2023-02-01T02:06:45;11.18;;;5.10;;
50569;SDS011;36525;49.398;7.614;2023-02-01T02:09:24;11.43;;;6.05;;
50569;SDS011;36525;49.398;7.614;2023-02-01T02:11:51;15.05;;;6.95;;
50569;SDS011;36525;49.398;7.614;2023-02-01T02:14:19;14.27;;;7.78;;
50569;SDS011;36525;49.398;7.614;2023-02-01T02:26:15;14.73;;;8.97;;
50569;SDS011;36525;49.398;7.614;2023-02-01T02:35:27;18.27;;;8.00;;
50569;SDS011;36525;49.398;7.614;2023-02-01T02:44:09;16.73;;;7.25;;
50569;SDS011;36525;49.398;7.614;2023-02-01T02:47:11;17.23;;;7.50;;
50569;SDS011;36525;49.398;7.614;2023-02-01T02:50:05;18.58;;;8.55;;
50569;SDS011;36525;49.398;7.614;2023-02-01T02:53:16;16.73;;;8.43;;
50569;SDS011;36525;49.398;7.614;2023-02-01T02:56:07;18.10;;;8.73;;
50569;SDS011;36525;49.398;7.614;2023-02-01T02:58:55;15.98;;;6.93;;
50569;SDS011;36525;49.398;7.614;2023-02-01T03:01:43;19.80;;;7.80;;
50569;SDS011;36525;49.398;7.614;2023-02-01T03:04:29;20.33;;;8.80;;
50569;SDS011;36525;49.398;7.614;2023-02-01T03:06:56;17.42;;;8.55;;
50569;SDS011;36525;49.398;7.614;2023-02-01T03:09:26;15.88;;;8.05;;
50569;SDS011;36525;49.398;7.614;2023-02-01T03:12:03;21.20;;;9.82;;
50569;SDS011;36525;49.398;7.614;2023-02-01T03:14:57;23.35;;;8.95;;
50569;SDS011;36525;49.398;7.614;2023-02-01T03:17:34;18.17;;;9.05;;
50569;SDS011;36525;49.398;7.614;2023-02-01T03:20:05;13.63;;;7.55;;
50569;SDS011;36525;49.398;7.614;2023-02-01T03:22:36;19.95;;;9.15;;
50569;SDS011;36525;49.398;7.614;2023-02-01T03:25:10;18.88;;;8.95;;
50569;SDS011;36525;49.398;7.614;2023-02-01T03:28:06;14.52;;;7.80;;
50569;SDS011;36525;49.398;7.614;2023-02-01T03:30:42;10.43;;;6.68;;
50569;SDS011;36525;49.398;7.614;2023-02-01T03:33:12;10.35;;;5.72;;
50569;SDS011;36525;49.398;7.614;2023-02-01T03:38:41;13.40;;;6.13;;
50569;SDS011;36525;49.398;7.614;2023-02-01T03:41:27;16.00;;;5.93;;
50569;SDS011;36525;49.398;7.614;2023-02-01T03:44:23;16.13;;;5.40;;
50569;SDS011;36525;49.398;7.614;2023-02-01T03:47:01;15.85;;;6.78;;
50569;SDS011;36525;49.398;7.614;2023-02-01T03:49:41;15.65;;;6.30;;
50569;SDS011;36525;49.398;7.614;2023-02-01T03:52:17;13.15;;;6.68;;
50569;SDS011;36525;49.398;7.614;2023-02-01T03:54:51;18.58;;;7.30;;
50569;SDS011;36525;49.398;7.614;2023-02-01T03:57:21;19.23;;;8.40;;
50569;SDS011;36525;49.398;7.614;2023-02-01T03:59:54;18.95;;;8.20;;
50569;SDS011;36525;49.398;7.614;2023-02-01T04:02:41;16.95;;;6.30;;
50569;SDS011;36525;49.398;7.614;2023-02-01T04:05:08;15.73;;;6.38;;
50569;SDS011;36525;49.398;7.614;2023-02-01T04:07:35;15.15;;;6.68;;
50569;SDS011;36525;49.398;7.614;2023-02-01T04:10:02;13.93;;;4.97;;
50569;SDS011;36525;49.398;7.614;2023-02-01T04:12:30;14.63;;;5.70;;
50569;SDS011;36525;49.398;7.614;2023-02-01T04:14:57;10.35;;;4.97;;
50569;SDS011;36525;49.398;7.614;2023-02-01T04:17:24;12.52;;;4.75;;
50569;SDS011;36525;49.398;7.614;2023-02-01T04:19:51;10.57;;;4.28;;
50569;SDS011;36525;49.398;7.614;2023-02-01T04:22:20;10.82;;;4.53;;
50569;SDS011;36525;49.398;7.614;2023-02-01T04:24:47;11.48;;;5.30;;
50569;SDS011;36525;49.398;7.614;2023-02-01T04:27:14;14.30;;;5.15;;
50569;SDS011;36525;49.398;7.614;2023-02-01T04:29:41;11.38;;;4.45;;
50569;SDS011;36525;49.398;7.614;2023-02-01T04:32:09;15.45;;;5.18;;
50569;SDS011;36525;49.398;7.614;2023-02-01T04:34:35;15.93;;;6.65;;
50569;SDS011;36525;49.398;7.614;2023-02-01T04:37:03;12.10;;;6.00;;
50569;SDS011;36525;49.398;7.614;2023-02-01T04:39:30;14.98;;;7.15;;
50569;SDS011;36525;49.398;7.614;2023-02-01T04:41:57;15.93;;;6.97;;
50569;SDS011;36525;49.398;7.614;2023-02-01T04:44:24;15.95;;;7.90;;
50569;SDS011;36525;49.398;7.614;2023-02-01T04:46:51;16.85;;;6.90;;
50569;SDS011;36525;49.398;7.614;2023-02-01T04:49:18;11.82;;;6.03;;
50569;SDS011;36525;49.398;7.614;2023-02-01T04:51:47;14.82;;;6.20;;
50569;SDS011;36525;49.398;7.614;2023-02-01T04:54:14;11.23;;;6.38;;
50569;SDS011;36525;49.398;7.614;2023-02-01T04:56:41;15.45;;;6.82;;
50569;SDS011;36525;49.398;7.614;2023-02-01T04:59:10;15.32;;;6.82;;
50569;SDS011;36525;49.398;7.614;2023-02-01T05:01:38;15.70;;;7.15;;
50569;SDS011;36525;49.398;7.614;2023-02-01T05:04:05;16.20;;;7.20;;
50569;SDS011;36525;49.398;7.614;2023-02-01T05:06:32;17.63;;;8.07;;
50569;SDS011;36525;49.398;7.614;2023-02-01T05:08:59;20.23;;;9.20;;
50569;SDS011;36525;49.398;7.614;2023-02-01T05:11:26;25.58;;;9.23;;
50569;SDS011;36525;49.398;7.614;2023-02-01T05:14:11;21.17;;;9.55;;
50569;SDS011;36525;49.398;7.614;2023-02-01T05:16:39;22.02;;;8.55;;
50569;SDS011;36525;49.398;7.614;2023-02-01T05:19:07;23.13;;;9.25;;
50569;SDS011;36525;49.398;7.614;2023-02-01T05:21:33;15.95;;;9.43;;
50569;SDS011;36525;49.398;7.614;2023-02-01T05:24:00;21.75;;;8.05;;
50569;SDS011;36525;49.398;7.614;2023-02-01T05:26:37;16.65;;;7.53;;
50569;SDS011;36525;49.398;7.614;2023-02-01T05:29:08;22.42;;;7.00;;
50569;SDS011;36525;49.398;7.614;2023-02-01T05:31:36;18.33;;;6.97;;
50569;SDS011;36525;49.398;7.614;2023-02-01T05:34:04;16.08;;;7.10;;
50569;SDS011;36525;49.398;7.614;2023-02-01T05:36:32;15.70;;;7.40;;
50569;SDS011;36525;49.398;7.614;2023-02-01T05:38:59;13.13;;;5.45;;
50569;SDS011;36525;49.398;7.614;2023-02-01T05:41:26;18.15;;;6.00;;
50569;SDS011;36525;49.398;7.614;2023-02-01T05:43:53;12.30;;;5.55;;
50569;SDS011;36525;49.398;7.614;2023-02-01T05:46:20;16.52;;;5.95;;
50569;SDS011;36525;49.398;7.614;2023-02-01T05:48:47;16.13;;;5.07;;
50569;SDS011;36525;49.398;7.614;2023-02-01T05:51:14;22.35;;;5.88;;
50569;SDS011;36525;49.398;7.614;2023-02-01T05:53:44;20.48;;;4.80;;
50569;SDS011;36525;49.398;7.614;2023-02-01T05:56:11;17.40;;;4.80;;
50569;SDS011;36525;49.398;7.614;2023-02-01T05:58:38;10.90;;;3.63;;
50569;SDS011;36525;49.398;7.614;2023-02-01T06:01:05;16.83;;;3.15;;
50569;SDS011;36525;49.398;7.614;2023-02-01T06:03:32;9.35;;;2.50;;
50569;SDS011;36525;49.398;7.614;2023-02-01T06:05:59;11.45;;;2.70;;
50569;SDS011;36525;49.398;7.614;2023-02-01T06:08:27;10.73;;;3.08;;
50569;SDS011;36525;49.398;7.614;2023-02-01T06:10:58;6.22;;;2.75;;
50569;SDS011;36525;49.398;7.614;2023-02-01T06:13:30;9.00;;;2.72;;
50569;SDS011;36525;49.398;7.614;2023-02-01T06:16:00;14.52;;;4.25;;
50569;SDS011;36525;49.398;7.614;2023-02-01T06:18:33;15.07;;;4.30;;
50569;SDS011;36525;49.398;7.614;2023-02-01T06:21:02;14.63;;;5.07;;
50569;SDS011;36525;49.398;7.614;2023-02-01T06:23:29;20.63;;;6.40;;
50569;SDS011;36525;49.398;7.614;2023-02-01T06:26:06;16.08;;;6.30;;
50569;SDS011;36525;49.398;7.614;2023-02-01T06:28:36;19.15;;;7.10;;
50569;SDS011;36525;49.398;7.614;2023-02-01T06:31:05;24.60;;;6.32;;
50569;SDS011;36525;49.398;7.614;2023-02-01T06:33:33;18.08;;;6.63;;
50569;SDS011;36525;49.398;7.614;2023-02-01T06:36:03;27.02;;;7.90;;
50569;SDS011;36525;49.398;7.614;2023-02-01T06:38:33;17.90;;;6.53;;
50569;SDS011;36525;49.398;7.614;2023-02-01T06:41:02;20.45;;;8.27;;
50569;SDS011;36525;49.398;7.614;2023-02-01T06:43:30;28.08;;;7.97;;
50569;SDS011;36525;49.398;7.614;2023-02-01T06:45:59;24.42;;;8.48;;
50569;SDS011;36525;49.398;7.614;2023-02-01T06:48:31;29.20;;;8.05;;
50569;SDS011;36525;49.398;7.614;2023-02-01T06:50:59;21.30;;;7.88;;
50569;SDS011;36525;49.398;7.614;2023-02-01T06:53:26;20.00;;;7.13;;
50569;SDS011;36525;49.398;7.614;2023-02-01T06:56:00;22.92;;;7.68;;
50569;SDS011;36525;49.398;7.614;2023-02-01T06:58:32;19.13;;;7.28;;
50569;SDS011;36525;49.398;7.614;2023-02-01T07:01:06;25.95;;;7.82;;
50569;SDS011;36525;49.398;7.614;2023-02-01T07:03:35;13.55;;;5.20;;
50569;SDS011;36525;49.398;7.614;2023-02-01T07:06:03;22.45;;;7.18;;
50569;SDS011;36525;49.398;7.614;2023-02-01T07:08:31;22.25;;;6.03;;
50569;SDS011;36525;49.398;7.614;2023-02-01T07:11:04;20.98;;;6.80;;
50569;SDS011;36525;49.398;7.614;2023-02-01T07:13:37;19.20;;;6.55;;
50569;SDS011;36525;49.398;7.614;2023-02-01T07:16:10;25.92;;;6.72;;
50569;SDS011;36525;49.398;7.614;2023-02-01T07:18:40;21.65;;;7.05;;
50569;SDS011;36525;49.398;7.614;2023-02-01T07:21:08;22.73;;;7.40;;
50569;SDS011;36525;49.398;7.614;2023-02-01T07:23:36;26.08;;;7.90;;
50569;SDS011;36525;49.398;7.614;2023-02-01T07:26:05;17.58;;;6.72;;
50569;SDS011;36525;49.398;7.614;2023-02-01T07:28:34;26.25;;;8.38;;
50569;SDS011;36525;49.398;7.614;2023-02-01T07:33:31;26.00;;;7.85;;
50569;SDS011;36525;49.398;7.614;2023-02-01T07:36:17;20.45;;;7.25;;
50569;SDS011;36525;49.398;7.614;2023-02-01T07:38:45;33.47;;;8.20;;
50569;SDS011;36525;49.398;7.614;2023-02-01T07:41:18;30.00;;;7.63;;
50569;SDS011;36525;49.398;7.614;2023-02-01T07:43:45;26.95;;;7.00;;
50569;SDS011;36525;49.398;7.614;2023-02-01T07:46:13;29.80;;;8.18;;
50569;SDS011;36525;49.398;7.614;2023-02-01T07:48:41;25.88;;;7.53;;
50569;SDS011;36525;49.398;7.614;2023-02-01T07:51:10;24.92;;;7.28;;
50569;SDS011;36525;49.398;7.614;2023-02-01T07:53:42;18.92;;;6.05;;
50569;SDS011;36525;49.398;7.614;2023-02-01T07:56:12;18.88;;;5.70;;
50569;SDS011;36525;49.398;7.614;2023-02-01T07:58:42;33.75;;;6.97;;
50569;SDS011;36525;49.398;7.614;2023-02-01T08:01:30;22.80;;;5.88;;
50569;SDS011;36525;49.398;7.614;2023-02-01T08:03:57;25.08;;;5.68;;
50569;SDS011;36525;49.398;7.614;2023-02-01T08:06:31;20.10;;;5.72;;
50569;SDS011;36525;49.398;7.614;2023-02-01T08:09:01;18.10;;;5.50;;
50569;SDS011;36525;49.398;7.614;2023-02-01T08:11:29;28.55;;;5.93;;
50569;SDS011;36525;49.398;7.614;2023-02-01T08:13:57;19.80;;;5.80;;
50569;SDS011;36525;49.398;7.614;2023-02-01T08:16:25;19.70;;;5.82;;
50569;SDS011;36525;49.398;7.614;2023-02-01T08:18:55;20.15;;;5.53;;
50569;SDS011;36525;49.398;7.614;2023-02-01T08:21:23;20.67;;;4.85;;
50569;SDS011;36525;49.398;7.614;2023-02-01T08:23:53;27.10;;;5.07;;
50569;SDS011;36525;49.398;7.614;2023-02-01T08:26:21;19.15;;;4.47;;
50569;SDS011;36525;49.398;7.614;2023-02-01T08:28:54;25.23;;;5.13;;
50569;SDS011;36525;49.398;7.614;2023-02-01T08:31:25;23.77;;;4.68;;
50569;SDS011;36525;49.398;7.614;2023-02-01T08:33:55;26.50;;;5.30;;
50569;SDS011;36525;49.398;7.614;2023-02-01T08:36:25;24.95;;;4.38;;
50569;SDS011;36525;49.398;7.614;2023-02-01T08:38:55;22.73;;;5.30;;
50569;SDS011;36525;49.398;7.614;2023-02-01T08:41:24;21.67;;;4.57;;
50569;SDS011;36525;49.398;7.614;2023-02-01T08:43:58;21.58;;;3.67;;
50569;SDS011;36525;49.398;7.614;2023-02-01T08:46:25;20.63;;;4.32;;
50569;SDS011;36525;49.398;7.614;2023-02-01T08:48:52;24.08;;;4.80;;
50569;SDS011;36525;49.398;7.614;2023-02-01T08:51:21;17.98;;;3.38;;
50569;SDS011;36525;49.398;7.614;2023-02-01T08:53:49;18.83;;;4.15;;
50569;SDS011;36525;49.398;7.614;2023-02-01T08:56:18;23.65;;;4.35;;
50569;SDS011;36525;49.398;7.614;2023-02-01T08:58:45;18.02;;;4.63;;
50569;SDS011;36525;49.398;7.614;2023-02-01T09:01:14;28.05;;;4.65;;
50569;SDS011;36525;49.398;7.614;2023-02-01T09:03:43;19.42;;;4.18;;
50569;SDS011;36525;49.398;7.614;2023-02-01T09:06:11;28.15;;;4.43;;
50569;SDS011;36525;49.398;7.614;2023-02-01T09:08:40;25.58;;;4.40;;
50569;SDS011;36525;49.398;7.614;2023-02-01T09:11:10;25.55;;;4.05;;
50569;SDS011;36525;49.398;7.614;2023-02-01T09:13:42;24.10;;;4.22;;
50569;SDS011;36525;49.398;7.614;2023-02-01T09:16:09;20.98;;;4.18;;
50569;SDS011;36525;49.398;7.614;2023-02-01T09:18:37;28.70;;;4.82;;
50569;SDS011;36525;49.398;7.614;2023-02-01T09:21:21;28.80;;;4.40;;
50569;SDS011;36525;49.398;7.614;2023-02-01T09:23:49;20.95;;;3.80;;
50569;SDS011;36525;49.398;7.614;2023-02-01T09:26:17;19.40;;;3.25;;
50569;SDS011;36525;49.398;7.614;2023-02-01T09:28:48;21.02;;;4.22;;
50569;SDS011;36525;49.398;7.614;2023-02-01T09:31:15;22.27;;;3.83;;
50569;SDS011;36525;49.398;7.614;2023-02-01T09:33:42;22.00;;;4.65;;
50569;SDS011;36525;49.398;7.614;2023-02-01T09:36:09;27.60;;;5.25;;
50569;SDS011;36525;49.398;7.614;2023-02-01T09:38:36;21.48;;;3.85;;
50569;SDS011;36525;49.398;7.614;2023-02-01T09:41:32;21.45;;;3.63;;
50569;SDS011;36525;49.398;7.614;2023-02-01T09:47:34;24.48;;;4.18;;
50569;SDS011;36525;49.398;7.614;2023-02-01T09:50:13;17.70;;;3.42;;
50569;SDS011;36525;49.398;7.614;2023-02-01T09:53:00;30.50;;;4.05;;
50569;SDS011;36525;49.398;7.614;2023-02-01T09:55:44;28.35;;;4.03;;
50569;SDS011;36525;49.398;7.614;2023-02-01T10:01:08;23.45;;;3.88;;
50569;SDS011;36525;49.398;7.614;2023-02-01T10:03:45;25.55;;;3.60;;
50569;SDS011;36525;49.398;7.614;2023-02-01T10:18:10;22.33;;;3.15;;
50569;SDS011;36525;49.398;7.614;2023-02-01T10:26:44;16.50;;;2.75;;
50569;SDS011;36525;49.398;7.614;2023-02-01T10:29:22;20.27;;;3.50;;
50569;SDS011;36525;49.398;7.614;2023-02-01T10:31:57;22.80;;;3.17;;
50569;SDS011;36525;49.398;7.614;2023-02-01T10:34:26;27.38;;;4.88;;
50569;SDS011;36525;49.398;7.614;2023-02-01T10:39:48;22.20;;;3.45;;
50569;SDS011;36525;49.398;7.614;2023-02-01T10:42:20;20.75;;;3.75;;
50569;SDS011;36525;49.398;7.614;2023-02-01T10:44:52;27.27;;;4.22;;
50569;SDS011;36525;49.398;7.614;2023-02-01T10:47:24;19.23;;;3.97;;
50569;SDS011;36525;49.398;7.614;2023-02-01T10:58:28;27.08;;;4.15;;
50569;SDS011;36525;49.398;7.614;2023-02-01T11:01:02;23.13;;;3.90;;
50569;SDS011;36525;49.398;7.614;2023-02-01T11:03:42;30.13;;;4.18;;
50569;SDS011;36525;49.398;7.614;2023-02-01T11:06:19;19.75;;;3.63;;
50569;SDS011;36525;49.398;7.614;2023-02-01T11:08:49;24.05;;;3.03;;
50569;SDS011;36525;49.398;7.614;2023-02-01T11:11:19;24.40;;;4.65;;
50569;SDS011;36525;49.398;7.614;2023-02-01T11:13:58;20.63;;;3.47;;
50569;SDS011;36525;49.398;7.614;2023-02-01T11:16:33;24.63;;;3.85;;
50569;SDS011;36525;49.398;7.614;2023-02-01T11:19:04;23.35;;;3.65;;
50569;SDS011;36525;49.398;7.614;2023-02-01T11:21:37;29.00;;;3.83;;
50569;SDS011;36525;49.398;7.614;2023-02-01T11:24:05;23.73;;;4.05;;
50569;SDS011;36525;49.398;7.614;2023-02-01T11:26:39;32.80;;;5.03;;
50569;SDS011;36525;49.398;7.614;2023-02-01T11:29:11;23.35;;;3.67;;
50569;SDS011;36525;49.398;7.614;2023-02-01T11:31:44;22.70;;;3.28;;
50569;SDS011;36525;49.398;7.614;2023-02-01T11:34:13;29.42;;;4.38;;
50569;SDS011;36525;49.398;7.614;2023-02-01T11:36:46;28.70;;;4.10;;
50569;SDS011;36525;49.398;7.614;2023-02-01T11:39:21;23.65;;;5.50;;
50569;SDS011;36525;49.398;7.614;2023-02-01T11:42:05;21.27;;;3.50;;
50569;SDS011;36525;49.398;7.614;2023-02-01T11:44:44;33.47;;;4.65;;
50569;SDS011;36525;49.398;7.614;2023-02-01T11:49:54;23.02;;;3.95;;
50569;SDS011;36525;49.398;7.614;2023-02-01T12:02:03;19.33;;;3.45;;
50569;SDS011;36525;49.398;7.614;2023-02-01T12:12:54;25.20;;;4.32;;
50569;SDS011;36525;49.398;7.614;2023-02-01T12:15:55;23.00;;;3.90;;
50569;SDS011;36525;49.398;7.614;2023-02-01T12:24:39;22.90;;;3.47;;
50569;SDS011;36525;49.398;7.614;2023-02-01T12:27:49;21.02;;;4.40;;
50569;SDS011;36525;49.398;7.614;2023-02-01T12:44:56;15.38;;;3.30;;
50569;SDS011;36525;49.398;7.614;2023-02-01T12:47:42;18.77;;;3.42;;
50569;SDS011;36525;49.398;7.614;2023-02-01T12:56:03;17.90;;;2.95;;
50569;SDS011;36525;49.398;7.614;2023-02-01T12:58:46;16.65;;;3.05;;
50569;SDS011;36525;49.398;7.614;2023-02-01T13:01:21;18.80;;;3.33;;
50569;SDS011;36525;49.398;7.614;2023-02-01T13:04:36;22.17;;;3.95;;
50569;SDS011;36525;49.398;7.614;2023-02-01T13:07:19;19.17;;;3.08;;
50569;SDS011;36525;49.398;7.614;2023-02-01T13:09:55;20.90;;;3.63;;
50569;SDS011;36525;49.398;7.614;2023-02-01T13:12:36;21.55;;;3.63;;
50569;SDS011;36525;49.398;7.614;2023-02-01T13:15:19;27.90;;;3.85;;
50569;SDS011;36525;49.398;7.614;2023-02-01T13:18:26;19.25;;;3.40;;
50569;SDS011;36525;49.398;7.614;2023-02-01T13:21:06;18.00;;;3.92;;
50569;SDS011;36525;49.398;7.614;2023-02-01T13:23:48;25.13;;;3.88;;
50569;SDS011;36525;49.398;7.614;2023-02-01T13:26:18;23.40;;;3.42;;
50569;SDS011;36525;49.398;7.614;2023-02-01T13:28:53;21.42;;;3.25;;
50569;SDS011;36525;49.398;7.614;2023-02-01T13:37:36;21.52;;;3.55;;
50569;SDS011;36525;49.398;7.614;2023-02-01T13:43:55;16.33;;;2.10;;
50569;SDS011;36525;49.398;7.614;2023-02-01T13:46:43;12.52;;;2.40;;
50569;SDS011;36525;49.398;7.614;2023-02-01T13:49:37;17.23;;;2.53;;
50569;SDS011;36525;49.398;7.614;2023-02-01T13:52:21;12.90;;;2.25;;
50569;SDS011;36525;49.398;7.614;2023-02-01T13:57:48;22.13;;;2.90;;
50569;SDS011;36525;49.398;7.614;2023-02-01T14:16:10;19.05;;;2.90;;
50569;SDS011;36525;49.398;7.614;2023-02-01T14:50:26;15.70;;;2.85;;
50569;SDS011;36525;49.398;7.614;2023-02-01T15:01:23;20.83;;;2.80;;
50569;SDS011;36525;49.398;7.614;2023-02-01T15:06:48;20.55;;;2.85;;
50569;SDS011;36525;49.398;7.614;2023-02-01T15:09:27;29.23;;;3.88;;
50569;SDS011;36525;49.398;7.614;2023-02-01T15:17:51;20.08;;;3.05;;
50569;SDS011;36525;49.398;7.614;2023-02-01T15:20:30;25.08;;;3.15;;
50569;SDS011;36525;49.398;7.614;2023-02-01T15:25:28;18.67;;;2.53;;
50569;SDS011;36525;49.398;7.614;2023-02-01T15:28:02;20.02;;;2.85;;
50569;SDS011;36525;49.398;7.614;2023-02-01T15:30:33;17.98;;;2.58;;
50569;SDS011;36525;49.398;7.614;2023-02-01T15:35:43;19.80;;;2.45;;
50569;SDS011;36525;49.398;7.614;2023-02-01T15:43:40;19.48;;;2.92;;
50569;SDS011;36525;49.398;7.614;2023-02-01T15:46:31;19.60;;;4.30;;
50569;SDS011;36525;49.398;7.614;2023-02-01T15:49:19;21.58;;;5.85;;
50569;SDS011;36525;49.398;7.614;2023-02-01T15:51:50;17.25;;;2.95;;
50569;SDS011;36525;49.398;7.614;2023-02-01T15:54:19;19.00;;;2.45;;
50569;SDS011;36525;49.398;7.614;2023-02-01T15:56:54;20.27;;;4.82;;
50569;SDS011;36525;49.398;7.614;2023-02-01T15:59:23;21.90;;;2.88;;
50569;SDS011;36525;49.398;7.614;2023-02-01T16:01:56;16.42;;;2.92;;
50569;SDS011;36525;49.398;7.614;2023-02-01T16:04:24;17.60;;;2.85;;
50569;SDS011;36525;49.398;7.614;2023-02-01T16:06:58;11.27;;;2.50;;
50569;SDS011;36525;49.398;7.614;2023-02-01T16:15:04;18.10;;;2.90;;
50569;SDS011;36525;49.398;7.614;2023-02-01T16:17:32;16.25;;;3.22;;
50569;SDS011;36525;49.398;7.614;2023-02-01T16:19:59;17.15;;;2.85;;
50569;SDS011;36525;49.398;7.614;2023-02-01T16:22:26;19.00;;;2.65;;
50569;SDS011;36525;49.398;7.614;2023-02-01T16:24:53;15.52;;;2.35;;
50569;SDS011;36525;49.398;7.614;2023-02-01T16:27:20;18.02;;;2.90;;
50569;SDS011;36525;49.398;7.614;2023-02-01T16:29:48;25.50;;;3.53;;
50569;SDS011;36525;49.398;7.614;2023-02-01T16:32:17;17.75;;;3.28;;
50569;SDS011;36525;49.398;7.614;2023-02-01T16:34:48;22.75;;;2.92;;
50569;SDS011;36525;49.398;7.614;2023-02-01T16:37:17;23.25;;;3.15;;
50569;SDS011;36525;49.398;7.614;2023-02-01T16:39:48;19.63;;;2.78;;
50569;SDS011;36525;49.398;7.614;2023-02-01T16:42:15;18.25;;;3.70;;
50569;SDS011;36525;49.398;7.614;2023-02-01T16:44:43;19.55;;;3.42;;
50569;SDS011;36525;49.398;7.614;2023-02-01T16:49:48;18.23;;;3.20;;
50569;SDS011;36525;49.398;7.614;2023-02-01T16:52:17;19.73;;;3.28;;
50569;SDS011;36525;49.398;7.614;2023-02-01T16:54:47;18.08;;;3.33;;
50569;SDS011;36525;49.398;7.614;2023-02-01T16:57:16;13.77;;;2.65;;
50569;SDS011;36525;49.398;7.614;2023-02-01T16:59:45;19.05;;;3.28;;
50569;SDS011;36525;49.398;7.614;2023-02-01T17:02:16;17.70;;;3.97;;
50569;SDS011;36525;49.398;7.614;2023-02-01T17:04:45;19.52;;;3.88;;
50569;SDS011;36525;49.398;7.614;2023-02-01T17:07:15;18.00;;;3.17;;
50569;SDS011;36525;49.398;7.614;2023-02-01T17:09:45;20.80;;;4.05;;
50569;SDS011;36525;49.398;7.614;2023-02-01T17:12:32;21.42;;;2.83;;
50569;SDS011;36525;49.398;7.614;2023-02-01T17:14:59;21.60;;;2.83;;
50569;SDS011;36525;49.398;7.614;2023-02-01T17:17:28;14.45;;;2.63;;
50569;SDS011;36525;49.398;7.614;2023-02-01T17:20:05;20.23;;;3.20;;
50569;SDS011;36525;49.398;7.614;2023-02-01T17:22:33;16.33;;;3.63;;
50569;SDS011;36525;49.398;7.614;2023-02-01T17:25:00;16.30;;;3.50;;
50569;SDS011;36525;49.398;7.614;2023-02-01T17:27:32;18.05;;;3.38;;
50569;SDS011;36525;49.398;7.614;2023-02-01T17:29:59;19.80;;;3.95;;
50569;SDS011;36525;49.398;7.614;2023-02-01T17:32:29;19.75;;;3.03;;
50569;SDS011;36525;49.398;7.614;2023-02-01T17:34:57;24.52;;;3.80;;
50569;SDS011;36525;49.398;7.614;2023-02-01T17:37:26;20.23;;;3.40;;
50569;SDS011;36525;49.398;7.614;2023-02-01T17:39:59;22.55;;;3.85;;
50569;SDS011;36525;49.398;7.614;2023-02-01T17:42:27;17.83;;;2.65;;
50569;SDS011;36525;49.398;7.614;2023-02-01T17:44:56;16.65;;;3.03;;
50569;SDS011;36525;49.398;7.614;2023-02-01T17:47:27;14.27;;;2.70;;
50569;SDS011;36525;49.398;7.614;2023-02-01T17:49:54;12.07;;;2.63;;
50569;SDS011;36525;49.398;7.614;2023-02-01T17:52:24;20.60;;;3.40;;
50569;SDS011;36525;49.398;7.614;2023-02-01T17:54:52;18.25;;;3.25;;
50569;SDS011;36525;49.398;7.614;2023-02-01T17:57:19;28.48;;;4.65;;
50569;SDS011;36525;49.398;7.614;2023-02-01T17:59:47;23.48;;;5.45;;
50569;SDS011;36525;49.398;7.614;2023-02-01T18:02:18;34.55;;;8.18;;
50569;SDS011;36525;49.398;7.614;2023-02-01T18:04:47;22.48;;;4.03;;
50569;SDS011;36525;49.398;7.614;2023-02-01T18:07:16;25.13;;;4.28;;
50569;SDS011;36525;49.398;7.614;2023-02-01T18:09:43;17.02;;;4.15;;
50569;SDS011;36525;49.398;7.614;2023-02-01T18:12:28;18.92;;;4.70;;
50569;SDS011;36525;49.398;7.614;2023-02-01T18:14:57;17.42;;;2.90;;
50569;SDS011;36525;49.398;7.614;2023-02-01T18:17:24;30.58;;;5.35;;
50569;SDS011;36525;49.398;7.614;2023-02-01T18:19:51;19.25;;;3.75;;
50569;SDS011;36525;49.398;7.614;2023-02-01T18:22:20;19.25;;;3.38;;
50569;SDS011;36525;49.398;7.614;2023-02-01T18:24:49;22.35;;;3.40;;
50569;SDS011;36525;49.398;7.614;2023-02-01T18:27:16;27.42;;;4.05;;
50569;SDS011;36525;49.398;7.614;2023-02-01T18:29:46;22.20;;;4.60;;
50569;SDS011;36525;49.398;7.614;2023-02-01T18:32:13;27.77;;;3.58;;
50569;SDS011;36525;49.398;7.614;2023-02-01T18:34:40;22.77;;;4.10;;
50569;SDS011;36525;49.398;7.614;2023-02-01T18:37:11;20.45;;;3.72;;